Alex, Minnesota
Current Conditions -  °F | °C
As of 6:53 AM on Friday 31 Oct 2014 (Local Time) from KAXN Reporting Station
Clear Clear  
Wind Chill: 14°   Ceiling: Unl
Heat Index: 25°   Visibility: 10mi
Dew Point: 17°   Wind: 13mph
Humidity: 72%   Direction: 30°NNE
Pressure: 30.55"   Gusts: NA
Location:  45.8551°N, 95.4333°W
Report Text: KAXN 311153Z AUTO 03011KT 10SM CLR M04/M08 A3055 RMK AO2 SLP367 T10391083 11017 21039 53009
Loading
Personal Weather Stations






























Interactive Weather Map
Tropical Storm Tracking
New forecast layout! Learn more

10-Day Weather Forecast

Advertisements
Track Severe Weather on mobile